Etusivu
METAR-TAF:

METAR-TAF

Lentoasemat :

Mammoth Yosemite Airport

Mammoth Lakes, Kalifornia, Yhdysvallat

Leveyspiiri: 37-37N, Pituuspiiri: 118-50W, korkeus merenpinnasta: 2173 m

Tämänhetkinen sää

Tämä raportti tehtiin 9 minuuttia sitten, kello 22.55 UTC
Tuuli 7 kn pohjoisen/luoteesta
Lämpötila 1°C
Kosteus 31%
Ilmanpaine 1018 hPa
Näkyvyys: 16.1 km
selkeää

METAR: KMMH 152255Z AUTO 34007KT 10SM CLR 01/M14 A3005 RMK AO2 T00101140

Aika: 15:04 (23:04 UTC)

Sääennuste

Tämä raportti tehtiin 5 tuntia ja 44 minuuttia sitten, kello 17.20 UTC
Ennuste voimassa 15. päivästä klo 18 UTC - 16. päivään klo 18 UTC
Tuuli 10 kn lännestä/luoteesta puuskistuen 18 kn:hen
Näkyvyys: 10 km
selkeää
From 16. päivästä klo 0100 UTC
Tuuli 6 kn lännestä
Näkyvyys: 10 km
Hajanaisia pilviä 25000 ft:n korkeudessa

TAF: KMMH 151720Z 1518/1618 30010G18KT P6SM SKC FM160100 28006KT P6SM SCT250

Säähavainnot ja -ennusteet yli 4000 lentoasemalta (METAR- ja TAF-raportit).

Käytössä olevat sääasemat on merkitty karttaan keltaisilla ja punaisilla pisteillä.

Aseta hiiri pisteen päälle nähdäksesi sääaseman nimen.

Klikkaa sitten nähdäksesi säähavainnot ja -ennusteet.

Kartan vaihtaminen: klikkaa mustalla rastilla varustettuja vihreitä pisteitä, niin voit zoomata sisään; viivalla varustettua vihreää pistettä, niin voit zoomata ulos tai vihreitä nuolia, niin pääset viereisille kartoille.


METAR-TAF: